sensor_id;sensor_type;location;lat;lon;timestamp;P1;durP1;ratioP1;P2;durP2;ratioP2
24161;SDS011;12318;51.262;7.066;2023-02-04T00:00:45;33.40;;;5.88;;
24161;SDS011;12318;51.262;7.066;2023-02-04T00:03:12;30.33;;;6.05;;
24161;SDS011;12318;51.262;7.066;2023-02-04T00:05:41;33.95;;;6.20;;
24161;SDS011;12318;51.262;7.066;2023-02-04T00:08:08;36.80;;;6.43;;
24161;SDS011;12318;51.262;7.066;2023-02-04T00:10:34;38.25;;;5.30;;
24161;SDS011;12318;51.262;7.066;2023-02-04T00:13:01;38.72;;;6.55;;
24161;SDS011;12318;51.262;7.066;2023-02-04T00:15:28;34.50;;;6.03;;
24161;SDS011;12318;51.262;7.066;2023-02-04T00:17:54;30.27;;;5.10;;
24161;SDS011;12318;51.262;7.066;2023-02-04T00:20:19;34.03;;;6.13;;
24161;SDS011;12318;51.262;7.066;2023-02-04T00:22:46;39.72;;;6.43;;
24161;SDS011;12318;51.262;7.066;2023-02-04T00:25:11;32.60;;;6.45;;
24161;SDS011;12318;51.262;7.066;2023-02-04T00:27:37;31.88;;;6.18;;
24161;SDS011;12318;51.262;7.066;2023-02-04T00:30:03;32.50;;;5.30;;
24161;SDS011;12318;51.262;7.066;2023-02-04T00:32:30;39.15;;;6.63;;
24161;SDS011;12318;51.262;7.066;2023-02-04T00:34:56;34.83;;;6.47;;
24161;SDS011;12318;51.262;7.066;2023-02-04T00:37:22;39.25;;;5.28;;
24161;SDS011;12318;51.262;7.066;2023-02-04T00:39:48;43.70;;;6.53;;
24161;SDS011;12318;51.262;7.066;2023-02-04T00:42:14;38.45;;;6.32;;
24161;SDS011;12318;51.262;7.066;2023-02-04T00:44:40;34.65;;;6.80;;
24161;SDS011;12318;51.262;7.066;2023-02-04T00:47:06;32.22;;;5.97;;
24161;SDS011;12318;51.262;7.066;2023-02-04T00:49:32;41.80;;;6.32;;
24161;SDS011;12318;51.262;7.066;2023-02-04T00:51:58;40.47;;;6.00;;
24161;SDS011;12318;51.262;7.066;2023-02-04T00:54:24;38.88;;;5.97;;
24161;SDS011;12318;51.262;7.066;2023-02-04T00:56:50;27.98;;;5.05;;
24161;SDS011;12318;51.262;7.066;2023-02-04T00:59:16;41.38;;;6.47;;
24161;SDS011;12318;51.262;7.066;2023-02-04T01:01:42;37.20;;;6.00;;
24161;SDS011;12318;51.262;7.066;2023-02-04T01:04:08;44.25;;;6.93;;
24161;SDS011;12318;51.262;7.066;2023-02-04T01:06:34;42.90;;;7.25;;
24161;SDS011;12318;51.262;7.066;2023-02-04T01:09:00;33.88;;;5.60;;
24161;SDS011;12318;51.262;7.066;2023-02-04T01:11:27;30.30;;;5.68;;
24161;SDS011;12318;51.262;7.066;2023-02-04T01:13:53;36.15;;;5.90;;
24161;SDS011;12318;51.262;7.066;2023-02-04T01:16:19;33.78;;;5.45;;
24161;SDS011;12318;51.262;7.066;2023-02-04T01:18:45;28.50;;;5.60;;
24161;SDS011;12318;51.262;7.066;2023-02-04T01:21:10;41.00;;;6.25;;
24161;SDS011;12318;51.262;7.066;2023-02-04T01:23:36;34.78;;;6.03;;
24161;SDS011;12318;51.262;7.066;2023-02-04T01:26:02;36.33;;;6.85;;
24161;SDS011;12318;51.262;7.066;2023-02-04T01:28:28;33.65;;;5.90;;
24161;SDS011;12318;51.262;7.066;2023-02-04T01:30:54;40.40;;;6.85;;
24161;SDS011;12318;51.262;7.066;2023-02-04T01:33:20;39.58;;;6.25;;
24161;SDS011;12318;51.262;7.066;2023-02-04T01:35:46;36.70;;;6.03;;
24161;SDS011;12318;51.262;7.066;2023-02-04T01:38:12;45.85;;;6.03;;
24161;SDS011;12318;51.262;7.066;2023-02-04T01:40:38;41.50;;;6.45;;
24161;SDS011;12318;51.262;7.066;2023-02-04T01:43:06;40.47;;;5.32;;
24161;SDS011;12318;51.262;7.066;2023-02-04T01:45:31;40.58;;;6.63;;
24161;SDS011;12318;51.262;7.066;2023-02-04T01:48:03;36.58;;;5.90;;
24161;SDS011;12318;51.262;7.066;2023-02-04T01:50:30;38.75;;;6.32;;
24161;SDS011;12318;51.262;7.066;2023-02-04T01:52:56;36.08;;;5.78;;
24161;SDS011;12318;51.262;7.066;2023-02-04T01:55:24;32.85;;;6.28;;
24161;SDS011;12318;51.262;7.066;2023-02-04T01:57:52;39.47;;;5.68;;
24161;SDS011;12318;51.262;7.066;2023-02-04T02:00:38;44.22;;;6.20;;
24161;SDS011;12318;51.262;7.066;2023-02-04T02:03:04;37.28;;;5.97;;
24161;SDS011;12318;51.262;7.066;2023-02-04T02:05:40;41.28;;;6.07;;
24161;SDS011;12318;51.262;7.066;2023-02-04T02:08:11;39.05;;;5.75;;
24161;SDS011;12318;51.262;7.066;2023-02-04T02:10:38;31.92;;;6.03;;
24161;SDS011;12318;51.262;7.066;2023-02-04T02:13:06;37.72;;;6.05;;
24161;SDS011;12318;51.262;7.066;2023-02-04T02:15:35;35.08;;;6.07;;
24161;SDS011;12318;51.262;7.066;2023-02-04T02:18:01;40.08;;;6.68;;
24161;SDS011;12318;51.262;7.066;2023-02-04T02:20:28;30.17;;;5.90;;
24161;SDS011;12318;51.262;7.066;2023-02-04T02:25:37;37.63;;;6.72;;
24161;SDS011;12318;51.262;7.066;2023-02-04T02:28:08;34.47;;;6.57;;
24161;SDS011;12318;51.262;7.066;2023-02-04T02:30:35;28.48;;;5.63;;
24161;SDS011;12318;51.262;7.066;2023-02-04T02:33:01;32.72;;;5.72;;
24161;SDS011;12318;51.262;7.066;2023-02-04T02:35:28;40.22;;;5.80;;
24161;SDS011;12318;51.262;7.066;2023-02-04T02:37:54;41.80;;;7.03;;
24161;SDS011;12318;51.262;7.066;2023-02-04T02:40:19;35.97;;;6.15;;
24161;SDS011;12318;51.262;7.066;2023-02-04T02:42:47;36.25;;;5.90;;
24161;SDS011;12318;51.262;7.066;2023-02-04T02:45:18;40.05;;;6.10;;
24161;SDS011;12318;51.262;7.066;2023-02-04T02:47:50;38.55;;;6.30;;
24161;SDS011;12318;51.262;7.066;2023-02-04T02:50:18;38.05;;;7.07;;
24161;SDS011;12318;51.262;7.066;2023-02-04T02:52:45;47.40;;;7.22;;
24161;SDS011;12318;51.262;7.066;2023-02-04T02:55:15;33.88;;;5.70;;
24161;SDS011;12318;51.262;7.066;2023-02-04T02:57:47;39.30;;;6.70;;
24161;SDS011;12318;51.262;7.066;2023-02-04T03:00:18;36.45;;;5.97;;
24161;SDS011;12318;51.262;7.066;2023-02-04T03:02:56;41.20;;;6.40;;
24161;SDS011;12318;51.262;7.066;2023-02-04T03:05:36;32.10;;;6.13;;
24161;SDS011;12318;51.262;7.066;2023-02-04T03:08:08;41.85;;;7.28;;
24161;SDS011;12318;51.262;7.066;2023-02-04T03:10:36;40.92;;;6.78;;
24161;SDS011;12318;51.262;7.066;2023-02-04T03:13:02;38.97;;;6.22;;
24161;SDS011;12318;51.262;7.066;2023-02-04T03:15:29;48.83;;;7.30;;
24161;SDS011;12318;51.262;7.066;2023-02-04T03:17:55;33.65;;;6.10;;
24161;SDS011;12318;51.262;7.066;2023-02-04T03:20:26;39.67;;;6.68;;
24161;SDS011;12318;51.262;7.066;2023-02-04T03:22:54;46.17;;;7.30;;
24161;SDS011;12318;51.262;7.066;2023-02-04T03:25:20;46.22;;;6.25;;
24161;SDS011;12318;51.262;7.066;2023-02-04T03:27:59;49.47;;;7.22;;
24161;SDS011;12318;51.262;7.066;2023-02-04T03:30:25;42.08;;;6.20;;
24161;SDS011;12318;51.262;7.066;2023-02-04T03:32:51;52.47;;;7.00;;
24161;SDS011;12318;51.262;7.066;2023-02-04T03:35:18;39.72;;;6.88;;
24161;SDS011;12318;51.262;7.066;2023-02-04T03:37:44;42.13;;;6.95;;
24161;SDS011;12318;51.262;7.066;2023-02-04T03:40:10;45.78;;;6.43;;
24161;SDS011;12318;51.262;7.066;2023-02-04T03:42:36;41.60;;;6.32;;
24161;SDS011;12318;51.262;7.066;2023-02-04T03:45:02;36.30;;;6.60;;
24161;SDS011;12318;51.262;7.066;2023-02-04T03:47:28;50.97;;;7.13;;
24161;SDS011;12318;51.262;7.066;2023-02-04T03:49:54;43.05;;;7.22;;
24161;SDS011;12318;51.262;7.066;2023-02-04T03:52:20;50.60;;;7.05;;
24161;SDS011;12318;51.262;7.066;2023-02-04T03:54:46;41.97;;;7.10;;
24161;SDS011;12318;51.262;7.066;2023-02-04T03:57:12;45.08;;;6.18;;
24161;SDS011;12318;51.262;7.066;2023-02-04T03:59:41;43.38;;;6.63;;
24161;SDS011;12318;51.262;7.066;2023-02-04T04:02:06;43.40;;;7.05;;
24161;SDS011;12318;51.262;7.066;2023-02-04T04:04:32;45.78;;;6.80;;
24161;SDS011;12318;51.262;7.066;2023-02-04T04:06:58;39.22;;;7.07;;
24161;SDS011;12318;51.262;7.066;2023-02-04T04:09:24;44.47;;;7.05;;
24161;SDS011;12318;51.262;7.066;2023-02-04T04:11:50;46.08;;;6.93;;
24161;SDS011;12318;51.262;7.066;2023-02-04T04:14:15;41.55;;;7.13;;
24161;SDS011;12318;51.262;7.066;2023-02-04T04:16:41;48.47;;;6.90;;
24161;SDS011;12318;51.262;7.066;2023-02-04T04:19:07;42.05;;;7.03;;
24161;SDS011;12318;51.262;7.066;2023-02-04T04:21:33;55.17;;;7.05;;
24161;SDS011;12318;51.262;7.066;2023-02-04T04:23:58;39.50;;;6.25;;
24161;SDS011;12318;51.262;7.066;2023-02-04T04:26:24;38.60;;;6.60;;
24161;SDS011;12318;51.262;7.066;2023-02-04T04:28:50;40.30;;;7.82;;
24161;SDS011;12318;51.262;7.066;2023-02-04T04:31:16;36.40;;;6.40;;
24161;SDS011;12318;51.262;7.066;2023-02-04T04:33:41;52.08;;;7.50;;
24161;SDS011;12318;51.262;7.066;2023-02-04T04:36:07;51.33;;;7.15;;
24161;SDS011;12318;51.262;7.066;2023-02-04T04:38:33;40.47;;;6.57;;
24161;SDS011;12318;51.262;7.066;2023-02-04T04:40:59;41.08;;;7.00;;
24161;SDS011;12318;51.262;7.066;2023-02-04T04:43:25;57.40;;;7.97;;
24161;SDS011;12318;51.262;7.066;2023-02-04T04:45:51;49.15;;;7.70;;
24161;SDS011;12318;51.262;7.066;2023-02-04T04:48:17;41.90;;;6.35;;
24161;SDS011;12318;51.262;7.066;2023-02-04T04:50:43;47.92;;;7.90;;
24161;SDS011;12318;51.262;7.066;2023-02-04T04:53:08;46.33;;;7.05;;
24161;SDS011;12318;51.262;7.066;2023-02-04T04:55:38;46.78;;;7.43;;
24161;SDS011;12318;51.262;7.066;2023-02-04T04:58:05;51.83;;;6.63;;
24161;SDS011;12318;51.262;7.066;2023-02-04T05:00:32;44.58;;;7.13;;
24161;SDS011;12318;51.262;7.066;2023-02-04T05:02:57;42.25;;;6.35;;
24161;SDS011;12318;51.262;7.066;2023-02-04T05:05:24;38.92;;;5.93;;
24161;SDS011;12318;51.262;7.066;2023-02-04T05:07:50;50.33;;;7.00;;
24161;SDS011;12318;51.262;7.066;2023-02-04T05:10:17;50.92;;;6.68;;
24161;SDS011;12318;51.262;7.066;2023-02-04T05:12:43;45.60;;;6.70;;
24161;SDS011;12318;51.262;7.066;2023-02-04T05:15:09;46.42;;;7.22;;
24161;SDS011;12318;51.262;7.066;2023-02-04T05:17:35;54.13;;;8.18;;
24161;SDS011;12318;51.262;7.066;2023-02-04T05:20:01;44.47;;;6.43;;
24161;SDS011;12318;51.262;7.066;2023-02-04T05:22:27;46.63;;;7.18;;
24161;SDS011;12318;51.262;7.066;2023-02-04T05:24:53;36.55;;;6.57;;
24161;SDS011;12318;51.262;7.066;2023-02-04T05:27:18;49.63;;;6.35;;
24161;SDS011;12318;51.262;7.066;2023-02-04T05:29:44;43.03;;;6.72;;
24161;SDS011;12318;51.262;7.066;2023-02-04T05:32:10;41.45;;;6.22;;
24161;SDS011;12318;51.262;7.066;2023-02-04T05:34:36;45.33;;;7.68;;
24161;SDS011;12318;51.262;7.066;2023-02-04T05:37:01;43.70;;;7.15;;
24161;SDS011;12318;51.262;7.066;2023-02-04T05:39:27;45.83;;;7.75;;
24161;SDS011;12318;51.262;7.066;2023-02-04T05:41:53;41.00;;;7.10;;
24161;SDS011;12318;51.262;7.066;2023-02-04T05:44:19;44.90;;;7.35;;
24161;SDS011;12318;51.262;7.066;2023-02-04T05:46:44;35.65;;;6.15;;
24161;SDS011;12318;51.262;7.066;2023-02-04T05:49:10;49.17;;;6.82;;
24161;SDS011;12318;51.262;7.066;2023-02-04T05:51:36;43.83;;;6.57;;
24161;SDS011;12318;51.262;7.066;2023-02-04T05:54:02;47.80;;;7.05;;
24161;SDS011;12318;51.262;7.066;2023-02-04T05:56:28;41.72;;;6.88;;
24161;SDS011;12318;51.262;7.066;2023-02-04T05:58:54;45.33;;;6.15;;
24161;SDS011;12318;51.262;7.066;2023-02-04T06:01:20;49.97;;;6.82;;
24161;SDS011;12318;51.262;7.066;2023-02-04T06:03:45;47.65;;;6.78;;
24161;SDS011;12318;51.262;7.066;2023-02-04T06:06:11;44.60;;;7.18;;
24161;SDS011;12318;51.262;7.066;2023-02-04T06:08:37;47.00;;;6.30;;
24161;SDS011;12318;51.262;7.066;2023-02-04T06:11:03;51.63;;;7.03;;
24161;SDS011;12318;51.262;7.066;2023-02-04T06:13:29;41.97;;;7.28;;
24161;SDS011;12318;51.262;7.066;2023-02-04T06:15:54;35.95;;;6.47;;
24161;SDS011;12318;51.262;7.066;2023-02-04T06:18:20;40.20;;;7.20;;
24161;SDS011;12318;51.262;7.066;2023-02-04T06:20:46;44.22;;;6.47;;
24161;SDS011;12318;51.262;7.066;2023-02-04T06:23:12;32.95;;;6.88;;
24161;SDS011;12318;51.262;7.066;2023-02-04T06:25:37;41.30;;;7.68;;
24161;SDS011;12318;51.262;7.066;2023-02-04T06:28:03;42.42;;;8.48;;
24161;SDS011;12318;51.262;7.066;2023-02-04T06:30:29;54.70;;;9.13;;
24161;SDS011;12318;51.262;7.066;2023-02-04T06:32:55;44.28;;;9.48;;
24161;SDS011;12318;51.262;7.066;2023-02-04T06:35:21;48.30;;;8.93;;
24161;SDS011;12318;51.262;7.066;2023-02-04T06:37:46;37.97;;;7.97;;
24161;SDS011;12318;51.262;7.066;2023-02-04T06:40:12;40.28;;;8.55;;
24161;SDS011;12318;51.262;7.066;2023-02-04T06:42:38;41.53;;;8.63;;
24161;SDS011;12318;51.262;7.066;2023-02-04T06:45:04;43.75;;;9.68;;
24161;SDS011;12318;51.262;7.066;2023-02-04T06:47:32;52.75;;;9.75;;
24161;SDS011;12318;51.262;7.066;2023-02-04T06:49:58;58.63;;;9.57;;
24161;SDS011;12318;51.262;7.066;2023-02-04T06:52:23;46.00;;;8.88;;
24161;SDS011;12318;51.262;7.066;2023-02-04T06:54:49;44.55;;;8.95;;
24161;SDS011;12318;51.262;7.066;2023-02-04T06:57:15;44.40;;;8.70;;
24161;SDS011;12318;51.262;7.066;2023-02-04T06:59:41;40.22;;;8.45;;
24161;SDS011;12318;51.262;7.066;2023-02-04T07:02:11;49.65;;;10.10;;
24161;SDS011;12318;51.262;7.066;2023-02-04T07:04:36;41.90;;;9.63;;
24161;SDS011;12318;51.262;7.066;2023-02-04T07:07:02;47.17;;;9.32;;
24161;SDS011;12318;51.262;7.066;2023-02-04T07:09:28;43.25;;;9.57;;
24161;SDS011;12318;51.262;7.066;2023-02-04T07:11:54;50.50;;;10.23;;
24161;SDS011;12318;51.262;7.066;2023-02-04T07:14:20;52.53;;;9.88;;
24161;SDS011;12318;51.262;7.066;2023-02-04T07:16:45;45.42;;;9.88;;
24161;SDS011;12318;51.262;7.066;2023-02-04T07:19:11;48.45;;;9.70;;
24161;SDS011;12318;51.262;7.066;2023-02-04T07:21:37;38.90;;;8.32;;
24161;SDS011;12318;51.262;7.066;2023-02-04T07:24:03;48.20;;;8.02;;
24161;SDS011;12318;51.262;7.066;2023-02-04T07:26:29;45.25;;;8.40;;
24161;SDS011;12318;51.262;7.066;2023-02-04T07:28:55;44.60;;;8.60;;
24161;SDS011;12318;51.262;7.066;2023-02-04T07:31:20;43.40;;;8.38;;
24161;SDS011;12318;51.262;7.066;2023-02-04T07:33:46;42.25;;;7.63;;
24161;SDS011;12318;51.262;7.066;2023-02-04T07:36:12;43.13;;;7.63;;
24161;SDS011;12318;51.262;7.066;2023-02-04T07:38:38;50.78;;;8.70;;
24161;SDS011;12318;51.262;7.066;2023-02-04T07:41:03;44.65;;;8.68;;
24161;SDS011;12318;51.262;7.066;2023-02-04T07:43:29;37.67;;;8.20;;
24161;SDS011;12318;51.262;7.066;2023-02-04T07:45:55;39.42;;;7.38;;
24161;SDS011;12318;51.262;7.066;2023-02-04T07:48:21;44.58;;;8.20;;
24161;SDS011;12318;51.262;7.066;2023-02-04T07:50:47;50.63;;;8.20;;
24161;SDS011;12318;51.262;7.066;2023-02-04T07:53:12;40.78;;;8.55;;
24161;SDS011;12318;51.262;7.066;2023-02-04T07:55:38;41.53;;;7.60;;
24161;SDS011;12318;51.262;7.066;2023-02-04T07:58:04;45.28;;;6.82;;
24161;SDS011;12318;51.262;7.066;2023-02-04T08:00:30;34.97;;;7.82;;
24161;SDS011;12318;51.262;7.066;2023-02-04T08:02:55;27.30;;;5.85;;
24161;SDS011;12318;51.262;7.066;2023-02-04T08:05:21;45.83;;;8.15;;
24161;SDS011;12318;51.262;7.066;2023-02-04T08:07:47;45.70;;;7.85;;
24161;SDS011;12318;51.262;7.066;2023-02-04T08:10:13;36.97;;;6.68;;
24161;SDS011;12318;51.262;7.066;2023-02-04T08:12:39;45.05;;;7.80;;
24161;SDS011;12318;51.262;7.066;2023-02-04T08:15:07;38.25;;;6.90;;
24161;SDS011;12318;51.262;7.066;2023-02-04T08:17:34;35.80;;;6.63;;
24161;SDS011;12318;51.262;7.066;2023-02-04T08:20:00;41.08;;;7.78;;
24161;SDS011;12318;51.262;7.066;2023-02-04T08:22:25;42.85;;;7.88;;
24161;SDS011;12318;51.262;7.066;2023-02-04T08:24:51;45.28;;;8.50;;
24161;SDS011;12318;51.262;7.066;2023-02-04T08:27:17;41.70;;;8.68;;
24161;SDS011;12318;51.262;7.066;2023-02-04T08:29:42;43.47;;;7.88;;
24161;SDS011;12318;51.262;7.066;2023-02-04T08:32:08;44.50;;;8.20;;
24161;SDS011;12318;51.262;7.066;2023-02-04T08:34:34;36.03;;;7.10;;
24161;SDS011;12318;51.262;7.066;2023-02-04T08:37:00;40.20;;;7.63;;
24161;SDS011;12318;51.262;7.066;2023-02-04T08:39:26;50.47;;;9.48;;
24161;SDS011;12318;51.262;7.066;2023-02-04T08:41:53;37.65;;;8.55;;
24161;SDS011;12318;51.262;7.066;2023-02-04T08:44:19;42.65;;;8.15;;
24161;SDS011;12318;51.262;7.066;2023-02-04T08:46:44;60.17;;;10.65;;
24161;SDS011;12318;51.262;7.066;2023-02-04T08:49:10;37.33;;;8.00;;
24161;SDS011;12318;51.262;7.066;2023-02-04T08:51:36;54.65;;;9.90;;
24161;SDS011;12318;51.262;7.066;2023-02-04T08:54:01;51.00;;;8.35;;
24161;SDS011;12318;51.262;7.066;2023-02-04T08:56:27;45.90;;;9.25;;
24161;SDS011;12318;51.262;7.066;2023-02-04T08:58:53;48.38;;;9.32;;
24161;SDS011;12318;51.262;7.066;2023-02-04T09:01:19;43.45;;;9.20;;
24161;SDS011;12318;51.262;7.066;2023-02-04T09:03:44;51.40;;;10.10;;
24161;SDS011;12318;51.262;7.066;2023-02-04T09:06:10;47.65;;;9.05;;
24161;SDS011;12318;51.262;7.066;2023-02-04T09:08:36;54.50;;;11.45;;
24161;SDS011;12318;51.262;7.066;2023-02-04T09:11:02;54.92;;;9.70;;
24161;SDS011;12318;51.262;7.066;2023-02-04T09:13:29;57.00;;;10.52;;
24161;SDS011;12318;51.262;7.066;2023-02-04T09:15:55;54.30;;;11.07;;
24161;SDS011;12318;51.262;7.066;2023-02-04T09:18:21;55.17;;;10.50;;
24161;SDS011;12318;51.262;7.066;2023-02-04T09:20:49;48.97;;;9.38;;
24161;SDS011;12318;51.262;7.066;2023-02-04T09:23:15;51.22;;;10.57;;
24161;SDS011;12318;51.262;7.066;2023-02-04T09:25:42;43.85;;;9.57;;
24161;SDS011;12318;51.262;7.066;2023-02-04T09:28:09;47.53;;;10.27;;
24161;SDS011;12318;51.262;7.066;2023-02-04T09:30:40;43.72;;;10.23;;
24161;SDS011;12318;51.262;7.066;2023-02-04T09:33:07;40.87;;;8.80;;
24161;SDS011;12318;51.262;7.066;2023-02-04T09:35:33;47.55;;;11.77;;
24161;SDS011;12318;51.262;7.066;2023-02-04T09:38:00;53.78;;;12.23;;
24161;SDS011;12318;51.262;7.066;2023-02-04T09:40:26;47.78;;;11.18;;
24161;SDS011;12318;51.262;7.066;2023-02-04T09:42:53;62.75;;;12.85;;
24161;SDS011;12318;51.262;7.066;2023-02-04T09:45:25;57.75;;;13.18;;
24161;SDS011;12318;51.262;7.066;2023-02-04T09:47:56;51.78;;;10.38;;
24161;SDS011;12318;51.262;7.066;2023-02-04T09:50:25;43.50;;;10.98;;
24161;SDS011;12318;51.262;7.066;2023-02-04T09:52:53;39.53;;;11.88;;
24161;SDS011;12318;51.262;7.066;2023-02-04T09:55:24;56.50;;;12.60;;
24161;SDS011;12318;51.262;7.066;2023-02-04T09:57:53;51.00;;;11.75;;
24161;SDS011;12318;51.262;7.066;2023-02-04T10:00:21;52.00;;;11.15;;
24161;SDS011;12318;51.262;7.066;2023-02-04T10:02:49;46.22;;;12.15;;
24161;SDS011;12318;51.262;7.066;2023-02-04T10:05:17;49.38;;;12.68;;
24161;SDS011;12318;51.262;7.066;2023-02-04T10:07:44;49.08;;;12.55;;
24161;SDS011;12318;51.262;7.066;2023-02-04T10:10:17;51.47;;;13.02;;
24161;SDS011;12318;51.262;7.066;2023-02-04T10:12:47;52.35;;;12.52;;
24161;SDS011;12318;51.262;7.066;2023-02-04T10:15:15;48.13;;;12.60;;
24161;SDS011;12318;51.262;7.066;2023-02-04T10:17:44;49.05;;;12.82;;
24161;SDS011;12318;51.262;7.066;2023-02-04T10:20:15;37.55;;;11.52;;
24161;SDS011;12318;51.262;7.066;2023-02-04T10:22:44;52.97;;;13.13;;
24161;SDS011;12318;51.262;7.066;2023-02-04T10:25:14;53.67;;;13.30;;
24161;SDS011;12318;51.262;7.066;2023-02-04T10:30:28;48.95;;;12.82;;
24161;SDS011;12318;51.262;7.066;2023-02-04T10:32:58;52.42;;;11.20;;
24161;SDS011;12318;51.262;7.066;2023-02-04T10:35:24;40.15;;;11.05;;
24161;SDS011;12318;51.262;7.066;2023-02-04T10:38:04;40.80;;;11.50;;
24161;SDS011;12318;51.262;7.066;2023-02-04T10:40:32;46.28;;;11.10;;
24161;SDS011;12318;51.262;7.066;2023-02-04T10:43:04;43.42;;;11.13;;
24161;SDS011;12318;51.262;7.066;2023-02-04T10:45:35;51.55;;;12.23;;
24161;SDS011;12318;51.262;7.066;2023-02-04T10:48:01;50.55;;;12.27;;
24161;SDS011;12318;51.262;7.066;2023-02-04T10:50:28;35.17;;;11.75;;
24161;SDS011;12318;51.262;7.066;2023-02-04T10:52:55;49.65;;;12.77;;
24161;SDS011;12318;51.262;7.066;2023-02-04T10:55:50;46.17;;;12.43;;
24161;SDS011;12318;51.262;7.066;2023-02-04T10:58:17;54.90;;;14.65;;
24161;SDS011;12318;51.262;7.066;2023-02-04T11:00:48;44.83;;;11.80;;
24161;SDS011;12318;51.262;7.066;2023-02-04T11:03:15;47.95;;;13.50;;
24161;SDS011;12318;51.262;7.066;2023-02-04T11:05:51;49.40;;;12.50;;
24161;SDS011;12318;51.262;7.066;2023-02-04T11:11:02;39.80;;;12.85;;
24161;SDS011;12318;51.262;7.066;2023-02-04T11:13:40;41.38;;;13.80;;
24161;SDS011;12318;51.262;7.066;2023-02-04T11:19:03;41.40;;;11.73;;
24161;SDS011;12318;51.262;7.066;2023-02-04T11:24:03;54.45;;;11.82;;
24161;SDS011;12318;51.262;7.066;2023-02-04T11:26:39;38.90;;;11.77;;
24161;SDS011;12318;51.262;7.066;2023-02-04T11:29:09;32.88;;;10.27;;
24161;SDS011;12318;51.262;7.066;2023-02-04T11:39:35;35.28;;;8.27;;
24161;SDS011;12318;51.262;7.066;2023-02-04T11:47:55;36.95;;;9.32;;
24161;SDS011;12318;51.262;7.066;2023-02-04T11:50:26;40.28;;;10.10;;
24161;SDS011;12318;51.262;7.066;2023-02-04T11:52:54;37.75;;;10.38;;
24161;SDS011;12318;51.262;7.066;2023-02-04T11:55:21;38.45;;;11.13;;
24161;SDS011;12318;51.262;7.066;2023-02-04T11:57:50;44.00;;;11.35;;
24161;SDS011;12318;51.262;7.066;2023-02-04T12:00:18;40.95;;;10.82;;
24161;SDS011;12318;51.262;7.066;2023-02-04T12:02:47;42.53;;;10.75;;
24161;SDS011;12318;51.262;7.066;2023-02-04T12:05:16;38.75;;;10.75;;
24161;SDS011;12318;51.262;7.066;2023-02-04T12:07:43;39.40;;;10.70;;
24161;SDS011;12318;51.262;7.066;2023-02-04T12:12:52;39.58;;;13.05;;
24161;SDS011;12318;51.262;7.066;2023-02-04T12:15:21;42.70;;;13.20;;
24161;SDS011;12318;51.262;7.066;2023-02-04T12:18:04;47.97;;;12.20;;
24161;SDS011;12318;51.262;7.066;2023-02-04T12:20:36;45.40;;;11.52;;
24161;SDS011;12318;51.262;7.066;2023-02-04T12:23:03;41.83;;;11.23;;
24161;SDS011;12318;51.262;7.066;2023-02-04T12:25:29;44.35;;;11.93;;
24161;SDS011;12318;51.262;7.066;2023-02-04T12:27:55;41.00;;;13.43;;
24161;SDS011;12318;51.262;7.066;2023-02-04T12:30:21;43.88;;;13.63;;
24161;SDS011;12318;51.262;7.066;2023-02-04T12:32:47;44.83;;;13.05;;
24161;SDS011;12318;51.262;7.066;2023-02-04T12:35:13;41.05;;;12.73;;
24161;SDS011;12318;51.262;7.066;2023-02-04T12:37:39;47.72;;;14.13;;
24161;SDS011;12318;51.262;7.066;2023-02-04T12:40:05;48.08;;;14.57;;
24161;SDS011;12318;51.262;7.066;2023-02-04T12:42:35;47.63;;;13.88;;
24161;SDS011;12318;51.262;7.066;2023-02-04T12:45:00;36.65;;;14.13;;
24161;SDS011;12318;51.262;7.066;2023-02-04T12:47:26;52.40;;;15.55;;
24161;SDS011;12318;51.262;7.066;2023-02-04T12:49:52;45.58;;;14.82;;
24161;SDS011;12318;51.262;7.066;2023-02-04T12:52:17;50.42;;;16.10;;
24161;SDS011;12318;51.262;7.066;2023-02-04T12:54:43;46.53;;;15.68;;
24161;SDS011;12318;51.262;7.066;2023-02-04T12:57:09;48.17;;;16.65;;
24161;SDS011;12318;51.262;7.066;2023-02-04T12:59:36;50.30;;;17.90;;
24161;SDS011;12318;51.262;7.066;2023-02-04T13:02:02;50.35;;;16.25;;
24161;SDS011;12318;51.262;7.066;2023-02-04T13:04:27;50.00;;;16.15;;
24161;SDS011;12318;51.262;7.066;2023-02-04T13:06:53;51.10;;;16.67;;
24161;SDS011;12318;51.262;7.066;2023-02-04T13:09:19;51.20;;;17.85;;
24161;SDS011;12318;51.262;7.066;2023-02-04T13:11:45;57.67;;;19.88;;
24161;SDS011;12318;51.262;7.066;2023-02-04T13:14:10;52.95;;;18.40;;
24161;SDS011;12318;51.262;7.066;2023-02-04T13:16:36;62.33;;;19.23;;
24161;SDS011;12318;51.262;7.066;2023-02-04T13:19:02;52.67;;;19.15;;
24161;SDS011;12318;51.262;7.066;2023-02-04T13:21:27;57.88;;;17.65;;
24161;SDS011;12318;51.262;7.066;2023-02-04T13:23:53;54.92;;;20.48;;
24161;SDS011;12318;51.262;7.066;2023-02-04T13:26:19;58.95;;;20.20;;
24161;SDS011;12318;51.262;7.066;2023-02-04T13:28:45;47.97;;;17.60;;
24161;SDS011;12318;51.262;7.066;2023-02-04T13:31:11;62.00;;;17.30;;
24161;SDS011;12318;51.262;7.066;2023-02-04T13:33:37;52.35;;;17.15;;
24161;SDS011;12318;51.262;7.066;2023-02-04T13:36:03;53.42;;;16.70;;
24161;SDS011;12318;51.262;7.066;2023-02-04T13:38:29;50.80;;;17.38;;
24161;SDS011;12318;51.262;7.066;2023-02-04T13:40:55;59.47;;;17.33;;
24161;SDS011;12318;51.262;7.066;2023-02-04T13:43:20;46.90;;;16.67;;
24161;SDS011;12318;51.262;7.066;2023-02-04T13:45:47;51.17;;;17.10;;
24161;SDS011;12318;51.262;7.066;2023-02-04T13:48:14;50.08;;;16.65;;
24161;SDS011;12318;51.262;7.066;2023-02-04T13:50:40;46.20;;;15.60;;
24161;SDS011;12318;51.262;7.066;2023-02-04T13:53:06;51.30;;;17.02;;
24161;SDS011;12318;51.262;7.066;2023-02-04T13:55:32;43.35;;;15.85;;
24161;SDS011;12318;51.262;7.066;2023-02-04T13:57:58;47.05;;;17.42;;
24161;SDS011;12318;51.262;7.066;2023-02-04T14:00:24;45.90;;;16.45;;
24161;SDS011;12318;51.262;7.066;2023-02-04T14:02:49;45.10;;;16.63;;
24161;SDS011;12318;51.262;7.066;2023-02-04T14:05:15;48.17;;;16.52;;
24161;SDS011;12318;51.262;7.066;2023-02-04T14:07:41;50.63;;;16.20;;
24161;SDS011;12318;51.262;7.066;2023-02-04T14:10:07;40.60;;;15.02;;
24161;SDS011;12318;51.262;7.066;2023-02-04T14:12:33;50.42;;;15.93;;
24161;SDS011;12318;51.262;7.066;2023-02-04T14:14:58;45.72;;;15.30;;
24161;SDS011;12318;51.262;7.066;2023-02-04T14:17:24;43.50;;;16.00;;
24161;SDS011;12318;51.262;7.066;2023-02-04T14:19:50;45.50;;;15.32;;
24161;SDS011;12318;51.262;7.066;2023-02-04T14:22:16;35.13;;;14.75;;
24161;SDS011;12318;51.262;7.066;2023-02-04T14:24:42;39.80;;;15.40;;
24161;SDS011;12318;51.262;7.066;2023-02-04T14:27:08;43.65;;;14.88;;
24161;SDS011;12318;51.262;7.066;2023-02-04T14:29:34;44.78;;;14.30;;
24161;SDS011;12318;51.262;7.066;2023-02-04T14:32:00;35.83;;;13.13;;
24161;SDS011;12318;51.262;7.066;2023-02-04T14:34:26;40.00;;;12.75;;
24161;SDS011;12318;51.262;7.066;2023-02-04T14:36:52;35.65;;;11.82;;
24161;SDS011;12318;51.262;7.066;2023-02-04T14:39:18;40.45;;;12.82;;
24161;SDS011;12318;51.262;7.066;2023-02-04T14:41:43;39.58;;;12.40;;
24161;SDS011;12318;51.262;7.066;2023-02-04T14:44:09;35.53;;;12.50;;
24161;SDS011;12318;51.262;7.066;2023-02-04T14:46:35;36.72;;;13.00;;
24161;SDS011;12318;51.262;7.066;2023-02-04T14:49:01;37.63;;;14.23;;
24161;SDS011;12318;51.262;7.066;2023-02-04T14:51:27;37.75;;;13.85;;
24161;SDS011;12318;51.262;7.066;2023-02-04T14:53:52;37.53;;;14.45;;
24161;SDS011;12318;51.262;7.066;2023-02-04T14:56:18;36.00;;;14.32;;
24161;SDS011;12318;51.262;7.066;2023-02-04T14:58:45;38.50;;;15.27;;